sensor_id;sensor_type;location;lat;lon;timestamp;temperature;humidity
69595;DHT22;56800;52.142;5.364;2023-06-22T00:01:19;19.90;65.80
69595;DHT22;56800;52.142;5.364;2023-06-22T00:03:47;19.80;65.80
69595;DHT22;56800;52.142;5.364;2023-06-22T00:06:14;19.80;65.80
69595;DHT22;56800;52.142;5.364;2023-06-22T00:08:41;19.80;66.00
69595;DHT22;56800;52.142;5.364;2023-06-22T00:11:08;19.80;66.20
69595;DHT22;56800;52.142;5.364;2023-06-22T00:13:34;19.80;66.20
69595;DHT22;56800;52.142;5.364;2023-06-22T00:16:01;19.80;66.30
69595;DHT22;56800;52.142;5.364;2023-06-22T00:18:28;19.70;66.30
69595;DHT22;56800;52.142;5.364;2023-06-22T00:20:57;19.70;66.20
69595;DHT22;56800;52.142;5.364;2023-06-22T00:23:27;19.80;66.20
69595;DHT22;56800;52.142;5.364;2023-06-22T00:25:53;19.70;66.30
69595;DHT22;56800;52.142;5.364;2023-06-22T00:28:20;19.70;66.40
69595;DHT22;56800;52.142;5.364;2023-06-22T00:30:48;19.70;66.40
69595;DHT22;56800;52.142;5.364;2023-06-22T00:33:16;19.60;66.50
69595;DHT22;56800;52.142;5.364;2023-06-22T00:35:43;19.60;66.50
69595;DHT22;56800;52.142;5.364;2023-06-22T00:38:11;19.60;66.60
69595;DHT22;56800;52.142;5.364;2023-06-22T00:40:38;19.60;66.70
69595;DHT22;56800;52.142;5.364;2023-06-22T00:43:05;19.60;66.70
69595;DHT22;56800;52.142;5.364;2023-06-22T00:45:33;19.60;66.70
69595;DHT22;56800;52.142;5.364;2023-06-22T00:48:00;19.60;66.70
69595;DHT22;56800;52.142;5.364;2023-06-22T00:50:29;19.60;66.70
69595;DHT22;56800;52.142;5.364;2023-06-22T00:53:07;19.60;66.70
69595;DHT22;56800;52.142;5.364;2023-06-22T00:55:41;19.60;66.80
69595;DHT22;56800;52.142;5.364;2023-06-22T00:58:10;19.50;66.70
69595;DHT22;56800;52.142;5.364;2023-06-22T01:00:38;19.50;66.80
69595;DHT22;56800;52.142;5.364;2023-06-22T01:03:09;19.50;66.90
69595;DHT22;56800;52.142;5.364;2023-06-22T01:05:38;19.40;66.90
69595;DHT22;56800;52.142;5.364;2023-06-22T01:08:36;19.40;66.90
69595;DHT22;56800;52.142;5.364;2023-06-22T01:11:13;19.40;67.10
69595;DHT22;56800;52.142;5.364;2023-06-22T01:16:23;19.40;67.10
69595;DHT22;56800;52.142;5.364;2023-06-22T01:18:53;19.40;67.10
69595;DHT22;56800;52.142;5.364;2023-06-22T01:21:23;19.40;67.10
69595;DHT22;56800;52.142;5.364;2023-06-22T01:26:56;19.30;67.40
69595;DHT22;56800;52.142;5.364;2023-06-22T01:29:24;19.20;67.30
69595;DHT22;56800;52.142;5.364;2023-06-22T01:31:52;19.20;67.40
69595;DHT22;56800;52.142;5.364;2023-06-22T01:34:21;19.20;67.40
69595;DHT22;56800;52.142;5.364;2023-06-22T01:36:48;19.20;67.50
69595;DHT22;56800;52.142;5.364;2023-06-22T01:39:16;19.10;67.50
69595;DHT22;56800;52.142;5.364;2023-06-22T01:41:45;19.10;67.60
69595;DHT22;56800;52.142;5.364;2023-06-22T01:44:12;19.10;67.60
69595;DHT22;56800;52.142;5.364;2023-06-22T01:46:39;19.10;67.60
69595;DHT22;56800;52.142;5.364;2023-06-22T01:49:07;19.10;67.60
69595;DHT22;56800;52.142;5.364;2023-06-22T01:51:34;19.00;67.70
69595;DHT22;56800;52.142;5.364;2023-06-22T01:54:01;19.00;67.80
69595;DHT22;56800;52.142;5.364;2023-06-22T01:56:29;19.00;67.80
69595;DHT22;56800;52.142;5.364;2023-06-22T01:59:13;19.00;67.80
69595;DHT22;56800;52.142;5.364;2023-06-22T02:01:47;18.90;67.90
69595;DHT22;56800;52.142;5.364;2023-06-22T02:04:32;18.90;67.90
69595;DHT22;56800;52.142;5.364;2023-06-22T02:07:00;18.90;68.00
69595;DHT22;56800;52.142;5.364;2023-06-22T02:09:31;18.80;67.90
69595;DHT22;56800;52.142;5.364;2023-06-22T02:12:00;18.90;68.00
69595;DHT22;56800;52.142;5.364;2023-06-22T02:14:28;18.80;68.10
69595;DHT22;56800;52.142;5.364;2023-06-22T02:16:56;18.80;68.10
69595;DHT22;56800;52.142;5.364;2023-06-22T02:19:27;18.80;68.20
69595;DHT22;56800;52.142;5.364;2023-06-22T02:21:53;18.70;68.10
69595;DHT22;56800;52.142;5.364;2023-06-22T02:24:20;18.70;68.10
69595;DHT22;56800;52.142;5.364;2023-06-22T02:26:49;18.70;68.20
69595;DHT22;56800;52.142;5.364;2023-06-22T02:29:16;18.70;68.20
69595;DHT22;56800;52.142;5.364;2023-06-22T02:31:44;18.70;68.30
69595;DHT22;56800;52.142;5.364;2023-06-22T02:34:11;18.70;68.40
69595;DHT22;56800;52.142;5.364;2023-06-22T02:36:45;18.70;68.50
69595;DHT22;56800;52.142;5.364;2023-06-22T02:39:21;18.60;68.40
69595;DHT22;56800;52.142;5.364;2023-06-22T02:41:50;18.60;68.50
69595;DHT22;56800;52.142;5.364;2023-06-22T02:44:18;18.60;68.40
69595;DHT22;56800;52.142;5.364;2023-06-22T02:46:45;18.60;68.40
69595;DHT22;56800;52.142;5.364;2023-06-22T02:49:11;18.60;68.40
69595;DHT22;56800;52.142;5.364;2023-06-22T02:51:41;18.60;69.30
69595;DHT22;56800;52.142;5.364;2023-06-22T02:54:08;18.60;69.30
69595;DHT22;56800;52.142;5.364;2023-06-22T02:56:34;18.50;68.50
69595;DHT22;56800;52.142;5.364;2023-06-22T02:59:03;18.50;68.70
69595;DHT22;56800;52.142;5.364;2023-06-22T03:01:30;18.50;68.70
69595;DHT22;56800;52.142;5.364;2023-06-22T03:03:57;18.50;68.70
69595;DHT22;56800;52.142;5.364;2023-06-22T03:06:24;18.50;68.70
69595;DHT22;56800;52.142;5.364;2023-06-22T03:08:59;18.50;69.50
69595;DHT22;56800;52.142;5.364;2023-06-22T03:11:27;18.40;68.80
69595;DHT22;56800;52.142;5.364;2023-06-22T03:13:54;18.40;68.70
69595;DHT22;56800;52.142;5.364;2023-06-22T03:16:21;18.30;68.70
69595;DHT22;56800;52.142;5.364;2023-06-22T03:18:47;18.30;68.80
69595;DHT22;56800;52.142;5.364;2023-06-22T03:21:14;18.30;68.90
69595;DHT22;56800;52.142;5.364;2023-06-22T03:23:42;18.30;69.00
69595;DHT22;56800;52.142;5.364;2023-06-22T03:26:09;18.30;69.00
69595;DHT22;56800;52.142;5.364;2023-06-22T03:28:37;18.30;69.90
69595;DHT22;56800;52.142;5.364;2023-06-22T03:31:04;18.30;69.10
69595;DHT22;56800;52.142;5.364;2023-06-22T03:33:33;18.20;69.90
69595;DHT22;56800;52.142;5.364;2023-06-22T03:36:00;18.20;69.10
69595;DHT22;56800;52.142;5.364;2023-06-22T03:38:27;18.20;69.10
69595;DHT22;56800;52.142;5.364;2023-06-22T03:40:53;18.20;69.20
69595;DHT22;56800;52.142;5.364;2023-06-22T03:43:20;18.10;69.50
69595;DHT22;56800;52.142;5.364;2023-06-22T03:45:47;18.10;69.10
69595;DHT22;56800;52.142;5.364;2023-06-22T03:48:14;18.10;69.20
69595;DHT22;56800;52.142;5.364;2023-06-22T03:50:40;18.10;69.20
69595;DHT22;56800;52.142;5.364;2023-06-22T03:53:07;18.10;69.30
69595;DHT22;56800;52.142;5.364;2023-06-22T03:55:34;18.10;69.40
69595;DHT22;56800;52.142;5.364;2023-06-22T03:58:01;18.10;69.50
69595;DHT22;56800;52.142;5.364;2023-06-22T04:00:32;18.00;69.60
69595;DHT22;56800;52.142;5.364;2023-06-22T04:02:59;18.00;69.60
69595;DHT22;56800;52.142;5.364;2023-06-22T04:05:26;18.00;69.60
69595;DHT22;56800;52.142;5.364;2023-06-22T04:07:52;18.00;69.60
69595;DHT22;56800;52.142;5.364;2023-06-22T04:10:19;18.00;69.60
69595;DHT22;56800;52.142;5.364;2023-06-22T04:12:46;18.00;69.60
69595;DHT22;56800;52.142;5.364;2023-06-22T04:15:13;18.10;69.70
69595;DHT22;56800;52.142;5.364;2023-06-22T04:17:40;18.10;69.70
69595;DHT22;56800;52.142;5.364;2023-06-22T04:20:07;18.00;69.80
69595;DHT22;56800;52.142;5.364;2023-06-22T04:22:34;18.00;69.80
69595;DHT22;56800;52.142;5.364;2023-06-22T04:25:01;18.10;69.90
69595;DHT22;56800;52.142;5.364;2023-06-22T04:27:27;18.00;70.00
69595;DHT22;56800;52.142;5.364;2023-06-22T04:29:54;18.10;70.00
69595;DHT22;56800;52.142;5.364;2023-06-22T04:32:21;18.10;70.10
69595;DHT22;56800;52.142;5.364;2023-06-22T04:34:47;18.00;70.10
69595;DHT22;56800;52.142;5.364;2023-06-22T04:37:14;18.10;70.20
69595;DHT22;56800;52.142;5.364;2023-06-22T04:39:42;18.10;70.20
69595;DHT22;56800;52.142;5.364;2023-06-22T04:42:09;18.10;70.20
69595;DHT22;56800;52.142;5.364;2023-06-22T04:44:36;18.10;70.30
69595;DHT22;56800;52.142;5.364;2023-06-22T04:47:03;18.10;70.30
69595;DHT22;56800;52.142;5.364;2023-06-22T04:49:36;18.10;70.40
69595;DHT22;56800;52.142;5.364;2023-06-22T04:52:08;18.20;70.50
69595;DHT22;56800;52.142;5.364;2023-06-22T04:54:36;18.20;70.50
69595;DHT22;56800;52.142;5.364;2023-06-22T04:57:04;18.20;70.60
69595;DHT22;56800;52.142;5.364;2023-06-22T04:59:31;18.20;70.60
69595;DHT22;56800;52.142;5.364;2023-06-22T05:01:59;18.30;70.70
69595;DHT22;56800;52.142;5.364;2023-06-22T05:04:27;18.30;70.80
69595;DHT22;56800;52.142;5.364;2023-06-22T05:06:55;18.30;70.80
69595;DHT22;56800;52.142;5.364;2023-06-22T05:09:21;18.30;71.00
69595;DHT22;56800;52.142;5.364;2023-06-22T05:11:48;18.40;70.90
69595;DHT22;56800;52.142;5.364;2023-06-22T05:14:15;18.40;71.00
69595;DHT22;56800;52.142;5.364;2023-06-22T05:16:42;18.40;71.00
69595;DHT22;56800;52.142;5.364;2023-06-22T05:19:09;18.50;71.10
69595;DHT22;56800;52.142;5.364;2023-06-22T05:21:36;18.40;71.00
69595;DHT22;56800;52.142;5.364;2023-06-22T05:24:04;18.50;71.90
69595;DHT22;56800;52.142;5.364;2023-06-22T05:26:34;18.50;71.10
69595;DHT22;56800;52.142;5.364;2023-06-22T05:29:02;18.60;71.10
69595;DHT22;56800;52.142;5.364;2023-06-22T05:31:29;18.60;71.10
69595;DHT22;56800;52.142;5.364;2023-06-22T05:33:57;18.60;71.00
69595;DHT22;56800;52.142;5.364;2023-06-22T05:36:23;18.70;71.10
69595;DHT22;56800;52.142;5.364;2023-06-22T05:38:52;18.80;71.10
69595;DHT22;56800;52.142;5.364;2023-06-22T05:41:19;18.80;71.10
69595;DHT22;56800;52.142;5.364;2023-06-22T05:43:46;18.90;71.10
69595;DHT22;56800;52.142;5.364;2023-06-22T05:46:13;18.90;70.90
69595;DHT22;56800;52.142;5.364;2023-06-22T05:48:40;19.00;70.90
69595;DHT22;56800;52.142;5.364;2023-06-22T05:51:06;19.00;70.90
69595;DHT22;56800;52.142;5.364;2023-06-22T05:53:33;19.10;71.00
69595;DHT22;56800;52.142;5.364;2023-06-22T05:56:00;19.10;71.00
69595;DHT22;56800;52.142;5.364;2023-06-22T05:58:26;19.20;71.00
69595;DHT22;56800;52.142;5.364;2023-06-22T06:00:53;19.20;71.00
69595;DHT22;56800;52.142;5.364;2023-06-22T06:03:20;19.30;70.90
69595;DHT22;56800;52.142;5.364;2023-06-22T06:05:46;19.40;70.90
69595;DHT22;56800;52.142;5.364;2023-06-22T06:08:14;19.50;70.90
69595;DHT22;56800;52.142;5.364;2023-06-22T06:10:41;19.50;70.90
69595;DHT22;56800;52.142;5.364;2023-06-22T06:13:07;19.60;70.80
69595;DHT22;56800;52.142;5.364;2023-06-22T06:15:35;19.70;70.80
69595;DHT22;56800;52.142;5.364;2023-06-22T06:18:01;19.80;70.90
69595;DHT22;56800;52.142;5.364;2023-06-22T06:20:33;19.90;70.90
69595;DHT22;56800;52.142;5.364;2023-06-22T06:23:10;20.00;70.90
69595;DHT22;56800;52.142;5.364;2023-06-22T06:25:58;20.10;70.90
69595;DHT22;56800;52.142;5.364;2023-06-22T06:29:00;20.10;70.80
69595;DHT22;56800;52.142;5.364;2023-06-22T06:31:29;20.30;70.70
69595;DHT22;56800;52.142;5.364;2023-06-22T06:34:08;20.40;70.60
69595;DHT22;56800;52.142;5.364;2023-06-22T06:36:35;20.50;70.30
69595;DHT22;56800;52.142;5.364;2023-06-22T06:39:02;20.60;70.20
69595;DHT22;56800;52.142;5.364;2023-06-22T06:41:30;20.70;70.10
69595;DHT22;56800;52.142;5.364;2023-06-22T06:43:56;20.80;69.90
69595;DHT22;56800;52.142;5.364;2023-06-22T06:46:23;20.90;69.80
69595;DHT22;56800;52.142;5.364;2023-06-22T06:48:50;21.00;69.50
69595;DHT22;56800;52.142;5.364;2023-06-22T06:51:17;21.10;69.00
69595;DHT22;56800;52.142;5.364;2023-06-22T06:53:44;21.20;68.70
69595;DHT22;56800;52.142;5.364;2023-06-22T06:56:10;21.30;68.60
69595;DHT22;56800;52.142;5.364;2023-06-22T06:58:41;21.40;68.40
69595;DHT22;56800;52.142;5.364;2023-06-22T07:01:09;21.50;68.20
69595;DHT22;56800;52.142;5.364;2023-06-22T07:03:35;21.60;67.90
69595;DHT22;56800;52.142;5.364;2023-06-22T07:06:02;21.70;67.70
69595;DHT22;56800;52.142;5.364;2023-06-22T07:08:29;21.80;67.60
69595;DHT22;56800;52.142;5.364;2023-06-22T07:10:57;21.90;67.60
69595;DHT22;56800;52.142;5.364;2023-06-22T07:13:23;22.00;67.60
69595;DHT22;56800;52.142;5.364;2023-06-22T07:15:50;22.00;67.30
69595;DHT22;56800;52.142;5.364;2023-06-22T07:18:17;22.10;67.00
69595;DHT22;56800;52.142;5.364;2023-06-22T07:20:44;22.20;67.00
69595;DHT22;56800;52.142;5.364;2023-06-22T07:23:10;22.20;67.00
69595;DHT22;56800;52.142;5.364;2023-06-22T07:25:37;22.30;66.80
69595;DHT22;56800;52.142;5.364;2023-06-22T07:28:06;22.30;66.40
69595;DHT22;56800;52.142;5.364;2023-06-22T07:30:33;22.30;66.40
69595;DHT22;56800;52.142;5.364;2023-06-22T07:33:01;22.40;66.50
69595;DHT22;56800;52.142;5.364;2023-06-22T07:35:34;22.50;66.50
69595;DHT22;56800;52.142;5.364;2023-06-22T07:38:01;22.50;66.40
69595;DHT22;56800;52.142;5.364;2023-06-22T07:40:32;22.60;66.20
69595;DHT22;56800;52.142;5.364;2023-06-22T07:42:59;22.70;65.90
69595;DHT22;56800;52.142;5.364;2023-06-22T07:45:26;22.80;65.60
69595;DHT22;56800;52.142;5.364;2023-06-22T07:47:52;22.90;65.90
69595;DHT22;56800;52.142;5.364;2023-06-22T07:50:19;23.00;64.70
69595;DHT22;56800;52.142;5.364;2023-06-22T07:52:46;23.00;64.20
69595;DHT22;56800;52.142;5.364;2023-06-22T07:55:14;23.00;64.00
69595;DHT22;56800;52.142;5.364;2023-06-22T07:57:41;23.10;64.60
69595;DHT22;56800;52.142;5.364;2023-06-22T08:00:09;23.20;63.50
69595;DHT22;56800;52.142;5.364;2023-06-22T08:02:44;23.20;63.30
69595;DHT22;56800;52.142;5.364;2023-06-22T08:05:11;23.30;63.20
69595;DHT22;56800;52.142;5.364;2023-06-22T08:07:58;23.40;63.40
69595;DHT22;56800;52.142;5.364;2023-06-22T08:10:25;23.50;63.30
69595;DHT22;56800;52.142;5.364;2023-06-22T08:12:52;23.50;62.90
69595;DHT22;56800;52.142;5.364;2023-06-22T08:15:19;23.60;62.50
69595;DHT22;56800;52.142;5.364;2023-06-22T08:17:46;23.70;62.40
69595;DHT22;56800;52.142;5.364;2023-06-22T08:20:13;23.80;62.10
69595;DHT22;56800;52.142;5.364;2023-06-22T08:22:41;23.80;61.70
69595;DHT22;56800;52.142;5.364;2023-06-22T08:25:08;23.90;61.40
69595;DHT22;56800;52.142;5.364;2023-06-22T08:27:36;24.00;61.40
69595;DHT22;56800;52.142;5.364;2023-06-22T08:30:03;24.10;61.20
69595;DHT22;56800;52.142;5.364;2023-06-22T08:32:30;24.20;61.10
69595;DHT22;56800;52.142;5.364;2023-06-22T08:34:59;24.30;60.60
69595;DHT22;56800;52.142;5.364;2023-06-22T08:37:26;24.40;60.30
69595;DHT22;56800;52.142;5.364;2023-06-22T08:40:04;24.40;59.90
69595;DHT22;56800;52.142;5.364;2023-06-22T08:42:32;24.50;59.60
69595;DHT22;56800;52.142;5.364;2023-06-22T08:44:58;24.60;59.80
69595;DHT22;56800;52.142;5.364;2023-06-22T08:47:27;24.70;59.20
69595;DHT22;56800;52.142;5.364;2023-06-22T08:49:54;24.70;58.50
69595;DHT22;56800;52.142;5.364;2023-06-22T08:52:21;24.80;58.10
69595;DHT22;56800;52.142;5.364;2023-06-22T08:54:49;24.80;57.80
69595;DHT22;56800;52.142;5.364;2023-06-22T08:57:17;24.80;57.60
69595;DHT22;56800;52.142;5.364;2023-06-22T08:59:43;24.90;57.10
69595;DHT22;56800;52.142;5.364;2023-06-22T09:02:10;24.90;56.80
69595;DHT22;56800;52.142;5.364;2023-06-22T09:04:37;24.90;56.80
69595;DHT22;56800;52.142;5.364;2023-06-22T09:07:04;25.00;56.80
69595;DHT22;56800;52.142;5.364;2023-06-22T09:09:31;25.00;56.50
69595;DHT22;56800;52.142;5.364;2023-06-22T09:11:58;25.10;56.20
69595;DHT22;56800;52.142;5.364;2023-06-22T09:14:25;25.10;55.90
69595;DHT22;56800;52.142;5.364;2023-06-22T09:16:51;25.20;55.90
69595;DHT22;56800;52.142;5.364;2023-06-22T09:19:18;25.30;56.00
69595;DHT22;56800;52.142;5.364;2023-06-22T09:21:45;25.30;55.30
69595;DHT22;56800;52.142;5.364;2023-06-22T09:24:11;25.40;54.90
69595;DHT22;56800;52.142;5.364;2023-06-22T09:26:38;25.40;54.60
69595;DHT22;56800;52.142;5.364;2023-06-22T09:29:05;25.50;54.60
69595;DHT22;56800;52.142;5.364;2023-06-22T09:31:32;25.50;53.70
69595;DHT22;56800;52.142;5.364;2023-06-22T09:33:59;25.60;53.10
69595;DHT22;56800;52.142;5.364;2023-06-22T09:36:26;25.60;52.90
69595;DHT22;56800;52.142;5.364;2023-06-22T09:38:52;25.70;52.30
69595;DHT22;56800;52.142;5.364;2023-06-22T09:41:23;25.80;52.30
69595;DHT22;56800;52.142;5.364;2023-06-22T09:43:50;25.80;52.00
69595;DHT22;56800;52.142;5.364;2023-06-22T09:46:18;25.90;52.30
69595;DHT22;56800;52.142;5.364;2023-06-22T09:48:48;26.00;52.40
69595;DHT22;56800;52.142;5.364;2023-06-22T09:51:15;26.10;52.40
69595;DHT22;56800;52.142;5.364;2023-06-22T09:53:43;26.10;52.40
69595;DHT22;56800;52.142;5.364;2023-06-22T09:56:10;26.10;52.40
69595;DHT22;56800;52.142;5.364;2023-06-22T09:58:45;26.10;52.30
69595;DHT22;56800;52.142;5.364;2023-06-22T10:01:13;26.10;51.90
69595;DHT22;56800;52.142;5.364;2023-06-22T10:03:43;26.00;51.90
69595;DHT22;56800;52.142;5.364;2023-06-22T10:06:10;26.00;52.80
69595;DHT22;56800;52.142;5.364;2023-06-22T10:08:37;26.00;51.80
69595;DHT22;56800;52.142;5.364;2023-06-22T10:11:04;25.90;51.90
69595;DHT22;56800;52.142;5.364;2023-06-22T10:13:31;25.80;52.10
69595;DHT22;56800;52.142;5.364;2023-06-22T10:15:58;25.70;51.80
69595;DHT22;56800;52.142;5.364;2023-06-22T10:18:25;25.70;52.30
69595;DHT22;56800;52.142;5.364;2023-06-22T10:20:52;25.60;52.10
69595;DHT22;56800;52.142;5.364;2023-06-22T10:23:19;25.60;52.30
69595;DHT22;56800;52.142;5.364;2023-06-22T10:25:46;25.60;52.20
69595;DHT22;56800;52.142;5.364;2023-06-22T10:28:13;25.60;52.50
69595;DHT22;56800;52.142;5.364;2023-06-22T10:30:40;25.50;53.50
69595;DHT22;56800;52.142;5.364;2023-06-22T10:33:11;25.50;52.40
69595;DHT22;56800;52.142;5.364;2023-06-22T10:35:38;25.40;52.50
69595;DHT22;56800;52.142;5.364;2023-06-22T10:38:05;25.40;52.80
69595;DHT22;56800;52.142;5.364;2023-06-22T10:40:32;25.40;52.50
69595;DHT22;56800;52.142;5.364;2023-06-22T10:42:59;25.30;52.70
69595;DHT22;56800;52.142;5.364;2023-06-22T10:45:26;25.30;52.80
69595;DHT22;56800;52.142;5.364;2023-06-22T10:47:55;25.30;52.90
69595;DHT22;56800;52.142;5.364;2023-06-22T10:50:22;25.30;52.90
69595;DHT22;56800;52.142;5.364;2023-06-22T10:52:50;25.30;53.00
69595;DHT22;56800;52.142;5.364;2023-06-22T10:55:17;25.30;53.20
69595;DHT22;56800;52.142;5.364;2023-06-22T10:57:44;25.30;53.30
69595;DHT22;56800;52.142;5.364;2023-06-22T11:00:14;25.30;53.40
69595;DHT22;56800;52.142;5.364;2023-06-22T11:02:42;25.30;53.60
69595;DHT22;56800;52.142;5.364;2023-06-22T11:05:10;25.30;54.00
69595;DHT22;56800;52.142;5.364;2023-06-22T11:07:38;25.30;54.20
69595;DHT22;56800;52.142;5.364;2023-06-22T11:10:13;25.30;54.50
69595;DHT22;56800;52.142;5.364;2023-06-22T11:12:40;25.30;55.10
69595;DHT22;56800;52.142;5.364;2023-06-22T11:15:07;25.30;55.30
69595;DHT22;56800;52.142;5.364;2023-06-22T11:17:35;25.30;55.30
69595;DHT22;56800;52.142;5.364;2023-06-22T11:20:02;25.30;55.10
69595;DHT22;56800;52.142;5.364;2023-06-22T11:22:32;25.30;55.10
69595;DHT22;56800;52.142;5.364;2023-06-22T11:25:00;25.30;55.00
69595;DHT22;56800;52.142;5.364;2023-06-22T11:27:27;25.40;56.30
69595;DHT22;56800;52.142;5.364;2023-06-22T11:29:54;25.30;55.80
69595;DHT22;56800;52.142;5.364;2023-06-22T11:32:21;25.30;55.50
69595;DHT22;56800;52.142;5.364;2023-06-22T11:34:48;25.30;55.60
69595;DHT22;56800;52.142;5.364;2023-06-22T11:37:15;25.30;55.40
69595;DHT22;56800;52.142;5.364;2023-06-22T11:39:42;25.40;55.20
69595;DHT22;56800;52.142;5.364;2023-06-22T11:42:13;25.40;55.00
69595;DHT22;56800;52.142;5.364;2023-06-22T11:44:40;25.40;54.80
69595;DHT22;56800;52.142;5.364;2023-06-22T11:47:06;25.40;54.80
69595;DHT22;56800;52.142;5.364;2023-06-22T11:49:33;25.50;55.90
69595;DHT22;56800;52.142;5.364;2023-06-22T11:52:00;25.50;54.70
69595;DHT22;56800;52.142;5.364;2023-06-22T11:54:27;25.50;54.80
69595;DHT22;56800;52.142;5.364;2023-06-22T11:56:53;25.60;54.80
69595;DHT22;56800;52.142;5.364;2023-06-22T11:59:20;25.60;54.80
69595;DHT22;56800;52.142;5.364;2023-06-22T12:01:48;25.60;55.00
69595;DHT22;56800;52.142;5.364;2023-06-22T12:04:17;25.60;55.10
69595;DHT22;56800;52.142;5.364;2023-06-22T12:06:44;25.70;55.10
69595;DHT22;56800;52.142;5.364;2023-06-22T12:09:11;25.70;54.80
69595;DHT22;56800;52.142;5.364;2023-06-22T12:11:40;25.70;54.80
69595;DHT22;56800;52.142;5.364;2023-06-22T12:14:07;25.70;55.20
69595;DHT22;56800;52.142;5.364;2023-06-22T12:16:33;25.70;55.20
69595;DHT22;56800;52.142;5.364;2023-06-22T12:19:00;25.70;55.20
69595;DHT22;56800;52.142;5.364;2023-06-22T12:21:27;25.70;55.30
69595;DHT22;56800;52.142;5.364;2023-06-22T12:23:55;25.70;54.80
69595;DHT22;56800;52.142;5.364;2023-06-22T12:26:22;25.70;54.80
69595;DHT22;56800;52.142;5.364;2023-06-22T12:28:48;25.60;54.70
69595;DHT22;56800;52.142;5.364;2023-06-22T12:31:15;25.60;54.60
69595;DHT22;56800;52.142;5.364;2023-06-22T12:33:42;25.60;54.90
69595;DHT22;56800;52.142;5.364;2023-06-22T12:36:09;25.60;55.00
69595;DHT22;56800;52.142;5.364;2023-06-22T12:38:35;25.60;55.10
69595;DHT22;56800;52.142;5.364;2023-06-22T12:41:02;25.60;55.40
69595;DHT22;56800;52.142;5.364;2023-06-22T12:43:29;25.60;55.90
69595;DHT22;56800;52.142;5.364;2023-06-22T12:45:56;25.50;56.00
69595;DHT22;56800;52.142;5.364;2023-06-22T12:48:24;25.40;56.20
69595;DHT22;56800;52.142;5.364;2023-06-22T12:50:51;25.40;56.40
69595;DHT22;56800;52.142;5.364;2023-06-22T12:53:20;25.30;57.70
69595;DHT22;56800;52.142;5.364;2023-06-22T12:55:49;25.20;57.00
69595;DHT22;56800;52.142;5.364;2023-06-22T12:58:15;25.10;57.10
69595;DHT22;56800;52.142;5.364;2023-06-22T13:00:43;25.00;57.30
69595;DHT22;56800;52.142;5.364;2023-06-22T13:03:09;25.00;58.10
69595;DHT22;56800;52.142;5.364;2023-06-22T13:05:37;24.90;58.60
69595;DHT22;56800;52.142;5.364;2023-06-22T13:08:04;24.80;58.70
69595;DHT22;56800;52.142;5.364;2023-06-22T13:10:31;24.70;59.00
69595;DHT22;56800;52.142;5.364;2023-06-22T13:12:59;24.70;59.20
69595;DHT22;56800;52.142;5.364;2023-06-22T13:15:28;24.60;59.50
69595;DHT22;56800;52.142;5.364;2023-06-22T13:17:56;24.60;59.70
69595;DHT22;56800;52.142;5.364;2023-06-22T13:20:23;24.50;60.00
69595;DHT22;56800;52.142;5.364;2023-06-22T13:22:49;24.40;60.30
69595;DHT22;56800;52.142;5.364;2023-06-22T13:25:16;24.40;60.60
69595;DHT22;56800;52.142;5.364;2023-06-22T13:27:45;24.30;60.80
69595;DHT22;56800;52.142;5.364;2023-06-22T13:30:13;24.20;61.30
69595;DHT22;56800;52.142;5.364;2023-06-22T13:32:41;24.20;61.80
69595;DHT22;56800;52.142;5.364;2023-06-22T13:35:11;24.10;61.90
69595;DHT22;56800;52.142;5.364;2023-06-22T13:37:38;24.10;62.40
69595;DHT22;56800;52.142;5.364;2023-06-22T13:40:06;24.10;62.70
69595;DHT22;56800;52.142;5.364;2023-06-22T13:42:33;24.00;63.20
69595;DHT22;56800;52.142;5.364;2023-06-22T13:45:00;23.90;63.40
69595;DHT22;56800;52.142;5.364;2023-06-22T13:47:27;23.90;63.80
69595;DHT22;56800;52.142;5.364;2023-06-22T13:49:56;23.90;64.10
69595;DHT22;56800;52.142;5.364;2023-06-22T13:52:24;23.80;64.50
69595;DHT22;56800;52.142;5.364;2023-06-22T13:54:51;23.80;64.80
69595;DHT22;56800;52.142;5.364;2023-06-22T13:57:18;23.80;65.00
69595;DHT22;56800;52.142;5.364;2023-06-22T13:59:45;23.70;65.10
69595;DHT22;56800;52.142;5.364;2023-06-22T14:02:12;23.70;65.30
69595;DHT22;56800;52.142;5.364;2023-06-22T14:04:38;23.70;65.40
69595;DHT22;56800;52.142;5.364;2023-06-22T14:07:05;23.70;65.50
69595;DHT22;56800;52.142;5.364;2023-06-22T14:09:32;23.60;65.80
69595;DHT22;56800;52.142;5.364;2023-06-22T14:12:03;23.60;65.90
69595;DHT22;56800;52.142;5.364;2023-06-22T14:14:32;23.60;66.10
69595;DHT22;56800;52.142;5.364;2023-06-22T14:17:00;23.60;66.10
69595;DHT22;56800;52.142;5.364;2023-06-22T14:19:26;23.50;66.10
69595;DHT22;56800;52.142;5.364;2023-06-22T14:21:53;23.50;66.20
69595;DHT22;56800;52.142;5.364;2023-06-22T14:24:20;23.50;66.30
69595;DHT22;56800;52.142;5.364;2023-06-22T14:26:50;23.40;66.40
69595;DHT22;56800;52.142;5.364;2023-06-22T14:29:17;23.30;66.20
69595;DHT22;56800;52.142;5.364;2023-06-22T14:31:45;23.30;66.50
69595;DHT22;56800;52.142;5.364;2023-06-22T14:34:14;23.30;66.70
69595;DHT22;56800;52.142;5.364;2023-06-22T14:36:41;23.20;66.50
69595;DHT22;56800;52.142;5.364;2023-06-22T14:39:08;23.20;66.60
69595;DHT22;56800;52.142;5.364;2023-06-22T14:41:35;23.10;66.70
69595;DHT22;56800;52.142;5.364;2023-06-22T14:44:02;23.00;66.70
69595;DHT22;56800;52.142;5.364;2023-06-22T14:46:29;23.00;66.80
69595;DHT22;56800;52.142;5.364;2023-06-22T14:48:56;23.00;67.10
69595;DHT22;56800;52.142;5.364;2023-06-22T14:51:22;22.90;67.20
69595;DHT22;56800;52.142;5.364;2023-06-22T14:53:49;22.90;67.30
69595;DHT22;56800;52.142;5.364;2023-06-22T14:56:16;22.80;67.20
69595;DHT22;56800;52.142;5.364;2023-06-22T14:58:43;22.80;67.30
69595;DHT22;56800;52.142;5.364;2023-06-22T15:01:16;22.70;67.50
69595;DHT22;56800;52.142;5.364;2023-06-22T15:03:43;22.60;67.70
69595;DHT22;56800;52.142;5.364;2023-06-22T15:06:10;22.60;67.90
69595;DHT22;56800;52.142;5.364;2023-06-22T15:08:38;22.50;68.00
69595;DHT22;56800;52.142;5.364;2023-06-22T15:11:05;22.50;68.20
69595;DHT22;56800;52.142;5.364;2023-06-22T15:13:32;22.40;68.20
69595;DHT22;56800;52.142;5.364;2023-06-22T15:16:01;22.40;69.00
69595;DHT22;56800;52.142;5.364;2023-06-22T15:18:30;22.30;68.20
69595;DHT22;56800;52.142;5.364;2023-06-22T15:20:57;22.30;68.30
69595;DHT22;56800;52.142;5.364;2023-06-22T15:23:25;22.20;68.40
69595;DHT22;56800;52.142;5.364;2023-06-22T15:25:52;22.20;68.40
69595;DHT22;56800;52.142;5.364;2023-06-22T15:28:19;22.10;68.50
69595;DHT22;56800;52.142;5.364;2023-06-22T15:30:48;22.10;68.70
69595;DHT22;56800;52.142;5.364;2023-06-22T15:33:16;22.10;68.80
69595;DHT22;56800;52.142;5.364;2023-06-22T15:35:42;22.00;68.80
69595;DHT22;56800;52.142;5.364;2023-06-22T15:38:09;22.00;68.90
69595;DHT22;56800;52.142;5.364;2023-06-22T15:40:36;22.00;68.90